createdAt,value
2019-05-15T00:00:19.317Z,69.10
2019-05-15T00:02:48.163Z,69.30
2019-05-15T00:05:18.864Z,69.40
2019-05-15T00:07:48.427Z,69.60
2019-05-15T00:10:18.096Z,69.70
2019-05-15T00:12:48.696Z,69.90
2019-05-15T00:15:18.248Z,70.10
2019-05-15T00:17:48.535Z,70.20
2019-05-15T00:20:16.873Z,70.40
2019-05-15T00:22:45.273Z,70.70
2019-05-15T00:25:13.694Z,70.60
2019-05-15T00:27:42.251Z,71.00
2019-05-15T00:30:10.646Z,71.20
2019-05-15T00:32:39.479Z,71.40
2019-05-15T00:35:09.399Z,71.70
2019-05-15T00:37:38.826Z,72.00
2019-05-15T00:40:08.856Z,72.10
2019-05-15T00:42:38.437Z,72.20
2019-05-15T00:45:09.378Z,72.20
2019-05-15T00:47:39.600Z,72.60
2019-05-15T00:50:08.878Z,72.90
2019-05-15T00:52:39.069Z,72.80
2019-05-15T00:55:08.614Z,72.90
2019-05-15T00:57:39.307Z,73.20
2019-05-15T01:00:08.170Z,73.20
2019-05-15T01:02:38.775Z,73.40
2019-05-15T01:05:08.127Z,73.60
2019-05-15T01:07:38.950Z,74.50
2019-05-15T01:10:09.935Z,73.90
2019-05-15T01:12:38.095Z,74.00
2019-05-15T01:15:09.282Z,74.20
2019-05-15T01:17:50.816Z,74.30
2019-05-15T01:20:19.182Z,75.30
2019-05-15T01:22:48.573Z,74.60
2019-05-15T01:25:18.620Z,74.70
2019-05-15T01:27:49.005Z,75.00
2019-05-15T01:30:18.061Z,75.00
2019-05-15T01:32:48.476Z,75.00
2019-05-15T01:35:17.988Z,75.00
2019-05-15T01:37:48.352Z,75.00
2019-05-15T01:40:18.248Z,75.30
2019-05-15T01:42:46.819Z,75.70
2019-05-15T01:45:15.169Z,75.80
2019-05-15T01:47:43.488Z,75.50
2019-05-15T01:50:12.482Z,76.00
2019-05-15T01:52:40.836Z,76.30
2019-05-15T01:55:09.521Z,76.30
2019-05-15T01:57:38.517Z,76.20
2019-05-15T02:00:08.686Z,76.30
2019-05-15T02:02:38.907Z,76.30
2019-05-15T02:05:08.496Z,76.40
2019-05-15T02:07:39.132Z,76.30
2019-05-15T02:10:09.106Z,76.60
2019-05-15T02:12:38.747Z,76.80
2019-05-15T02:15:08.497Z,76.80
2019-05-15T02:17:39.297Z,76.90
2019-05-15T02:20:08.353Z,77.00
2019-05-15T02:22:42.054Z,77.10
2019-05-15T02:25:08.609Z,77.00
2019-05-15T02:27:39.214Z,77.70
2019-05-15T02:30:17.926Z,77.30
2019-05-15T02:32:39.614Z,78.10
2019-05-15T02:35:09.868Z,77.50
2019-05-15T02:37:41.146Z,77.90
2019-05-15T02:40:09.902Z,77.90
2019-05-15T02:42:39.919Z,77.90
2019-05-15T02:45:09.891Z,78.40
2019-05-15T02:47:39.411Z,78.80
2019-05-15T02:50:10.809Z,79.30
2019-05-15T02:52:40.750Z,79.40
2019-05-15T02:55:09.315Z,79.90
2019-05-15T02:57:39.449Z,79.90
2019-05-15T03:00:10.895Z,80.20
2019-05-15T03:02:41.214Z,80.60
2019-05-15T03:05:09.343Z,80.60
2019-05-15T03:07:40.406Z,80.80
2019-05-15T03:10:09.372Z,81.10
2019-05-15T03:12:40.636Z,81.30
2019-05-15T03:15:09.583Z,81.60
2019-05-15T03:17:40.352Z,81.90
2019-05-15T03:20:10.339Z,82.00
2019-05-15T03:22:40.153Z,82.00
2019-05-15T03:25:10.620Z,82.00
2019-05-15T03:27:39.757Z,82.00
2019-05-15T03:30:13.831Z,82.00
2019-05-15T03:32:46.831Z,81.80
2019-05-15T03:35:32.653Z,81.80
2019-05-15T03:37:59.879Z,81.80
2019-05-15T03:40:29.923Z,81.90
2019-05-15T03:42:59.260Z,81.80
2019-05-15T03:45:29.721Z,81.70
2019-05-15T03:47:59.542Z,81.70
2019-05-15T03:50:28.923Z,81.80
2019-05-15T03:52:58.894Z,81.90
2019-05-15T03:55:29.653Z,81.80
2019-05-15T03:57:59.185Z,81.70
2019-05-15T04:00:30.159Z,81.90
2019-05-15T04:02:59.079Z,81.60
2019-05-15T04:05:29.443Z,81.60
2019-05-15T04:07:59.879Z,81.50
2019-05-15T04:10:28.791Z,82.30
2019-05-15T04:13:00.108Z,81.50
2019-05-15T04:15:30.201Z,81.80
2019-05-15T04:18:00.307Z,80.80
2019-05-15T04:20:29.667Z,80.50
2019-05-15T04:23:00.289Z,80.70
2019-05-15T04:25:29.677Z,81.20
2019-05-15T04:27:58.897Z,81.50
2019-05-15T04:30:30.494Z,81.00
2019-05-15T04:32:59.493Z,81.80
2019-05-15T04:35:28.911Z,81.90
2019-05-15T04:37:59.743Z,82.30
2019-05-15T04:40:29.848Z,82.30
2019-05-15T04:43:00.902Z,81.70
2019-05-15T04:45:34.642Z,81.30
2019-05-15T04:47:59.431Z,80.90
2019-05-15T04:50:28.784Z,81.10
2019-05-15T04:52:59.244Z,82.10
2019-05-15T04:55:28.960Z,82.40
2019-05-15T04:57:59.218Z,82.40
2019-05-15T05:00:51.869Z,82.60
2019-05-15T05:03:20.709Z,82.70
2019-05-15T05:05:50.214Z,82.60
2019-05-15T05:08:20.769Z,82.30
2019-05-15T05:10:49.570Z,82.10
2019-05-15T05:13:19.766Z,82.60
2019-05-15T05:15:49.959Z,82.80
2019-05-15T05:18:19.060Z,82.80
2019-05-15T05:20:48.513Z,83.50
2019-05-15T05:23:19.174Z,83.90
2019-05-15T05:25:49.076Z,84.30
2019-05-15T05:28:18.148Z,84.70
2019-05-15T05:30:48.273Z,85.10
2019-05-15T05:33:18.125Z,85.40
2019-05-15T05:35:48.633Z,86.10
2019-05-15T05:38:19.277Z,86.90
2019-05-15T05:40:49.586Z,86.50
2019-05-15T05:43:18.984Z,87.40
2019-05-15T05:45:49.246Z,88.00
2019-05-15T05:48:18.689Z,87.80
2019-05-15T05:50:49.709Z,88.10
2019-05-15T05:53:17.630Z,87.70
2019-05-15T05:55:45.918Z,86.80
2019-05-15T05:58:14.234Z,86.40
2019-05-15T06:00:44.768Z,86.00
2019-05-15T06:03:13.251Z,86.10
2019-05-15T06:05:41.691Z,86.40
2019-05-15T06:08:10.103Z,86.70
2019-05-15T06:10:38.830Z,85.60
2019-05-15T06:13:08.727Z,85.50
2019-05-15T06:15:37.944Z,85.60
2019-05-15T06:18:08.298Z,84.70
2019-05-15T06:20:39.340Z,84.00
2019-05-15T06:23:08.485Z,83.30
2019-05-15T06:25:39.085Z,83.10
2019-05-15T06:28:09.027Z,83.40
2019-05-15T06:30:38.654Z,81.90
2019-05-15T06:33:13.164Z,82.30
2019-05-15T06:35:39.327Z,81.90
2019-05-15T06:38:08.551Z,81.30
2019-05-15T06:40:39.340Z,80.80
2019-05-15T06:43:08.725Z,80.20
2019-05-15T06:45:38.009Z,79.80
2019-05-15T06:48:09.295Z,79.20
2019-05-15T06:50:38.754Z,77.90
2019-05-15T06:53:10.429Z,75.90
2019-05-15T06:55:38.913Z,74.60
2019-05-15T06:58:09.218Z,72.20
2019-05-15T07:00:39.129Z,71.60
2019-05-15T07:03:20.331Z,71.30
2019-05-15T07:05:38.593Z,70.90
2019-05-15T07:08:09.042Z,71.30
2019-05-15T07:10:37.760Z,71.50
2019-05-15T07:13:08.705Z,71.10
2019-05-15T07:15:38.442Z,70.20
2019-05-15T07:18:08.653Z,70.40
2019-05-15T07:20:38.906Z,70.50
2019-05-15T07:23:08.776Z,70.10
2019-05-15T07:25:39.032Z,67.90
2019-05-15T07:28:08.810Z,66.80
2019-05-15T07:30:41.018Z,65.50
2019-05-15T07:33:08.803Z,63.30
2019-05-15T07:35:38.463Z,62.90
2019-05-15T07:38:07.998Z,62.10
2019-05-15T07:40:38.833Z,62.50
2019-05-15T07:43:09.100Z,62.40
2019-05-15T07:45:42.488Z,63.00
2019-05-15T07:48:09.018Z,63.20
2019-05-15T07:50:38.681Z,63.50
2019-05-15T07:53:08.787Z,63.40
2019-05-15T07:55:39.374Z,63.30
2019-05-15T07:58:08.591Z,62.90
2019-05-15T08:00:39.404Z,63.50
2019-05-15T08:03:10.006Z,63.20
2019-05-15T08:05:39.441Z,62.00
2019-05-15T08:08:08.849Z,61.40
2019-05-15T08:10:39.632Z,61.40
2019-05-15T08:13:08.918Z,60.80
2019-05-15T08:15:38.161Z,60.10
2019-05-15T08:18:09.830Z,60.10
2019-05-15T08:20:38.508Z,59.00
2019-05-15T08:23:08.485Z,58.70
2019-05-15T08:25:38.901Z,57.90
2019-05-15T08:28:08.786Z,57.20
2019-05-15T08:30:38.722Z,56.10
2019-05-15T08:33:08.390Z,55.90
2019-05-15T08:35:38.719Z,55.30
2019-05-15T08:38:08.773Z,54.40
2019-05-15T08:40:41.129Z,55.10
2019-05-15T08:43:11.349Z,54.00
2019-05-15T08:45:39.098Z,53.50
2019-05-15T08:48:09.385Z,53.30
2019-05-15T08:50:39.037Z,52.50
2019-05-15T08:53:08.346Z,51.30
2019-05-15T08:55:39.027Z,50.30
2019-05-15T08:58:13.572Z,50.80
2019-05-15T09:00:40.162Z,50.90
2019-05-15T09:03:08.726Z,50.90
2019-05-15T09:05:38.847Z,50.40
2019-05-15T09:08:09.267Z,49.60
2019-05-15T09:10:38.505Z,48.70
2019-05-15T09:13:09.582Z,49.20
2019-05-15T09:15:39.517Z,49.80
2019-05-15T09:18:15.040Z,49.20
2019-05-15T09:20:38.332Z,49.20
2019-05-15T09:23:08.939Z,48.60
2019-05-15T09:25:38.845Z,48.60
2019-05-15T09:28:08.692Z,49.60
2019-05-15T09:30:39.132Z,51.10
2019-05-15T09:33:08.689Z,50.90
2019-05-15T09:35:39.254Z,50.10
2019-05-15T09:38:08.642Z,50.90
2019-05-15T09:40:43.260Z,51.80
2019-05-15T09:43:10.797Z,53.90
2019-05-15T09:45:38.126Z,54.50
2019-05-15T09:48:09.483Z,54.50
2019-05-15T09:50:39.657Z,53.50
2019-05-15T09:53:09.128Z,53.90
2019-05-15T09:55:56.225Z,55.90
2019-05-15T09:58:24.626Z,56.30
2019-05-15T10:00:53.688Z,56.10
2019-05-15T10:03:22.246Z,58.10
2019-05-15T10:05:50.624Z,58.00
2019-05-15T10:08:21.388Z,56.70
2019-05-15T10:10:49.118Z,56.10
2019-05-15T10:13:18.622Z,56.60
2019-05-15T10:15:50.649Z,56.80
2019-05-15T10:18:19.062Z,57.30
2019-05-15T10:20:47.394Z,56.50
2019-05-15T10:23:19.091Z,56.60
2019-05-15T10:25:48.233Z,57.20
2019-05-15T10:28:18.659Z,57.20
2019-05-15T10:30:48.794Z,57.40
2019-05-15T10:33:16.072Z,59.10
2019-05-15T10:35:45.028Z,58.50
2019-05-15T10:38:13.471Z,58.20
2019-05-15T10:41:00.289Z,58.10
2019-05-15T10:43:20.694Z,59.40
2019-05-15T10:45:50.032Z,58.10
2019-05-15T10:48:20.544Z,57.20
2019-05-15T10:50:47.722Z,56.80
2019-05-15T10:53:18.689Z,57.00
2019-05-15T10:55:49.488Z,58.50
2019-05-15T10:58:21.778Z,57.00
2019-05-15T11:00:49.419Z,57.80
2019-05-15T11:03:19.945Z,57.50
2019-05-15T11:05:49.250Z,58.60
2019-05-15T11:08:18.878Z,59.20
2019-05-15T11:10:49.295Z,58.50
2019-05-15T11:13:18.599Z,58.20
2019-05-15T11:15:49.188Z,58.40
2019-05-15T11:18:17.934Z,58.40
2019-05-15T11:20:48.686Z,59.80
2019-05-15T11:23:19.554Z,59.60
2019-05-15T11:25:48.588Z,59.50
2019-05-15T11:28:16.493Z,59.80
2019-05-15T11:30:44.920Z,59.80
2019-05-15T11:33:13.365Z,59.80
2019-05-15T11:35:56.787Z,61.50
2019-05-15T11:38:11.848Z,60.70
2019-05-15T11:40:40.226Z,62.00
2019-05-15T11:43:08.719Z,61.30
2019-05-15T11:45:39.053Z,61.00
2019-05-15T11:48:09.006Z,62.90
2019-05-15T11:50:40.091Z,63.50
2019-05-15T11:53:08.740Z,63.50
2019-05-15T11:55:38.666Z,63.90
2019-05-15T11:58:09.384Z,64.00
2019-05-15T12:00:38.444Z,63.80
2019-05-15T12:03:08.931Z,63.30
2019-05-15T12:05:38.815Z,63.80
2019-05-15T12:08:08.692Z,64.10
2019-05-15T12:10:38.918Z,63.60
2019-05-15T12:13:09.814Z,64.30
2019-05-15T12:15:38.841Z,63.90
2019-05-15T12:18:08.921Z,63.70
2019-05-15T12:20:39.074Z,63.50
2019-05-15T12:23:08.990Z,61.90
2019-05-15T12:25:39.351Z,60.30
2019-05-15T12:28:09.417Z,59.90
2019-05-15T12:30:40.373Z,59.00
2019-05-15T12:33:09.472Z,59.10
2019-05-15T12:35:39.606Z,58.40
2019-05-15T13:00:58.273Z,56.10
2019-05-15T13:03:28.711Z,55.80
2019-05-15T13:05:56.691Z,56.50
2019-05-15T13:08:25.011Z,57.90
2019-05-15T13:10:53.427Z,58.80
2019-05-15T13:13:21.828Z,59.40
2019-05-15T13:15:50.206Z,60.40
2019-05-15T13:18:18.647Z,61.00
2019-05-15T13:20:49.010Z,63.30
2019-05-15T13:23:17.128Z,61.60
2019-05-15T13:25:48.132Z,63.90
2019-05-15T13:28:18.159Z,63.70
2019-05-15T13:30:45.586Z,64.90
2019-05-15T13:33:14.081Z,64.00
2019-05-15T13:35:45.291Z,64.80
2019-05-15T13:38:12.936Z,64.50
2019-05-15T13:40:42.527Z,63.90
2019-05-15T13:43:11.157Z,64.30
2019-05-15T13:45:39.592Z,64.20
2019-05-15T13:48:08.889Z,62.30
2019-05-15T13:50:40.343Z,62.70
2019-05-15T13:53:10.709Z,62.50
2019-05-15T13:55:42.437Z,61.10
2019-05-15T13:58:08.718Z,60.00
2019-05-15T14:00:39.088Z,59.30
2019-05-15T14:03:09.036Z,58.40
2019-05-15T14:05:38.523Z,56.00
2019-05-15T14:08:07.137Z,50.50
2019-05-15T14:10:38.237Z,47.50
2019-05-15T14:13:05.765Z,45.20
2019-05-15T14:15:34.153Z,41.40
2019-05-15T14:18:02.587Z,38.90
2019-05-15T14:20:30.962Z,36.90
2019-05-15T14:22:59.390Z,34.70
2019-05-15T14:25:27.795Z,33.90
2019-05-15T14:27:59.116Z,33.10
2019-05-15T14:30:29.031Z,33.30
2019-05-15T14:32:59.373Z,34.50
2019-05-15T14:35:26.542Z,35.60
2019-05-15T14:38:05.409Z,36.20
2019-05-15T14:40:25.138Z,37.10
2019-05-15T14:42:53.541Z,38.30
2019-05-15T14:45:21.888Z,38.70
2019-05-15T14:47:50.464Z,39.00
2019-05-15T14:50:18.851Z,38.70
2019-05-15T14:52:47.984Z,37.80
2019-05-15T14:55:17.314Z,36.90
2019-05-15T14:57:48.478Z,36.40
2019-05-15T15:00:19.405Z,34.90
2019-05-15T15:02:49.117Z,32.50
2019-05-15T15:05:20.876Z,31.20
2019-05-15T15:07:48.788Z,31.20
2019-05-15T15:10:19.715Z,31.70
2019-05-15T15:12:46.524Z,32.10
2019-05-15T15:15:14.876Z,32.70
2019-05-15T15:17:43.262Z,32.90
2019-05-15T15:20:11.761Z,32.10
2019-05-15T15:22:40.333Z,31.80
2019-05-15T15:25:09.632Z,31.80
2019-05-15T15:27:39.043Z,31.80
2019-05-15T15:30:09.181Z,31.60
2019-05-15T15:32:38.659Z,30.50
2019-05-15T15:35:08.537Z,30.50
2019-05-15T15:37:38.195Z,30.00
2019-05-15T15:40:08.315Z,29.80
2019-05-15T15:42:39.288Z,29.40
2019-05-15T15:45:09.002Z,28.50
2019-05-15T15:47:39.035Z,27.60
2019-05-15T15:50:09.521Z,27.50
2019-05-15T15:52:38.429Z,28.10
2019-05-15T15:55:08.977Z,27.90
2019-05-15T15:57:39.640Z,27.20
2019-05-15T16:00:10.974Z,27.20
2019-05-15T16:02:41.144Z,27.90
2019-05-15T16:05:09.639Z,28.20
2019-05-15T16:07:38.432Z,28.60
2019-05-15T16:10:08.332Z,28.80
2019-05-15T16:12:38.768Z,28.70
2019-05-15T16:15:08.879Z,28.30
2019-05-15T16:17:38.522Z,27.90
2019-05-15T16:20:08.293Z,27.60
2019-05-15T16:22:38.193Z,27.50
2019-05-15T16:25:09.562Z,27.30
2019-05-15T16:27:38.553Z,27.20
2019-05-15T16:30:08.336Z,26.50
2019-05-15T16:32:38.945Z,26.40
2019-05-15T16:35:08.368Z,26.40
2019-05-15T16:37:38.869Z,26.90
2019-05-15T16:40:07.500Z,27.70
2019-05-15T16:42:38.144Z,28.60
2019-05-15T16:45:09.342Z,29.50
2019-05-15T16:47:38.761Z,30.30
2019-05-15T16:50:08.167Z,31.40
2019-05-15T16:52:38.735Z,32.40
2019-05-15T16:55:09.321Z,32.50
2019-05-15T16:57:38.625Z,32.90
2019-05-15T17:00:09.534Z,33.20
2019-05-15T17:02:39.174Z,33.50
2019-05-15T17:05:07.724Z,34.10
2019-05-15T17:07:38.662Z,34.50
2019-05-15T17:10:08.414Z,34.80
2019-05-15T17:12:38.566Z,35.30
2019-05-15T17:15:08.497Z,35.60
2019-05-15T17:17:38.773Z,35.80
2019-05-15T17:20:09.691Z,36.20
2019-05-15T17:22:38.531Z,36.50
2019-05-15T17:25:09.198Z,37.00
2019-05-15T17:27:37.115Z,37.20
2019-05-15T17:30:09.411Z,37.40
2019-05-15T17:32:38.883Z,38.00
2019-05-15T17:35:09.891Z,38.20
2019-05-15T17:37:37.981Z,38.70
2019-05-15T17:40:06.860Z,38.80
2019-05-15T17:42:35.339Z,39.20
2019-05-15T17:45:04.521Z,39.70
2019-05-15T17:47:32.901Z,39.80
2019-05-15T17:50:01.312Z,40.20
2019-05-15T17:52:29.944Z,40.50
2019-05-15T17:54:59.305Z,40.80
2019-05-15T17:57:28.640Z,40.80
2019-05-15T17:59:59.003Z,41.00
2019-05-15T18:02:28.592Z,41.00
2019-05-15T18:04:58.856Z,41.10
2019-05-15T18:07:28.143Z,41.30
2019-05-15T18:09:58.942Z,41.40
2019-05-15T18:12:29.041Z,41.60
2019-05-15T18:14:58.327Z,41.80
2019-05-15T18:17:26.846Z,42.00
2019-05-15T18:19:58.097Z,42.30
2019-05-15T18:22:26.822Z,42.70
2019-05-15T18:24:55.189Z,43.20
2019-05-15T18:27:23.735Z,43.50
2019-05-15T18:29:52.130Z,43.90
2019-05-15T18:32:20.517Z,44.20
2019-05-15T18:34:49.091Z,44.30
2019-05-15T18:37:19.156Z,44.70
2019-05-15T18:39:49.366Z,45.50
2019-05-15T18:42:18.647Z,45.40
2019-05-15T18:44:48.219Z,45.60
2019-05-15T18:47:18.667Z,46.00
2019-05-15T18:50:03.756Z,46.10
2019-05-15T18:52:18.164Z,46.70
2019-05-15T18:54:48.025Z,47.00
2019-05-15T18:57:18.491Z,47.30
2019-05-15T18:59:48.529Z,47.70
2019-05-15T19:02:19.014Z,48.20
2019-05-15T19:04:48.890Z,48.20
2019-05-15T19:07:18.142Z,48.20
2019-05-15T19:09:47.995Z,48.30
2019-05-15T19:12:17.914Z,48.60
2019-05-15T19:14:49.174Z,48.80
2019-05-15T19:17:18.560Z,49.20
2019-05-15T19:19:48.208Z,49.40
2019-05-15T19:22:19.290Z,49.80
2019-05-15T19:24:48.491Z,50.20
2019-05-15T19:27:18.723Z,50.50
2019-05-15T19:29:48.380Z,50.80
2019-05-15T19:32:17.750Z,51.00
2019-05-15T19:34:48.209Z,51.00
2019-05-15T19:37:18.341Z,51.10
2019-05-15T19:39:47.979Z,51.10
2019-05-15T19:42:18.110Z,51.50
2019-05-15T19:44:48.505Z,51.90
2019-05-15T19:47:18.538Z,52.20
2019-05-15T19:49:48.412Z,52.40
2019-05-15T19:52:17.897Z,52.60
2019-05-15T19:54:48.369Z,52.50
2019-05-15T19:57:18.473Z,52.70
2019-05-15T19:59:48.669Z,52.90
2019-05-15T20:02:18.032Z,53.30
2019-05-15T20:04:46.480Z,53.70
2019-05-15T20:07:14.862Z,54.20
2019-05-15T20:09:43.306Z,54.30
2019-05-15T20:12:11.749Z,54.30
2019-05-15T20:14:40.515Z,54.80
2019-05-15T20:17:08.882Z,55.30
2019-05-15T20:19:38.236Z,55.40
2019-05-15T20:22:28.296Z,55.90
2019-05-15T20:24:58.345Z,56.10
2019-05-15T20:27:28.219Z,56.90
2019-05-15T20:29:56.804Z,57.20
2019-05-15T20:32:27.678Z,57.40
2019-05-15T20:34:55.280Z,57.30
2019-05-15T20:37:24.278Z,57.70
2019-05-15T20:39:52.605Z,58.00
2019-05-15T20:42:20.968Z,58.20
2019-05-15T20:44:51.413Z,58.10
2019-05-15T20:47:19.790Z,58.20
2019-05-15T20:49:48.501Z,58.80
2019-05-15T20:52:21.615Z,58.40
2019-05-15T20:54:51.372Z,58.60
2019-05-15T20:57:19.805Z,58.70
2019-05-15T20:59:48.271Z,59.10
2019-05-15T21:02:18.656Z,59.40
2019-05-15T21:04:46.784Z,59.30
2019-05-15T21:07:15.256Z,59.50
2019-05-15T21:09:43.702Z,59.90
2019-05-15T21:12:12.087Z,60.70
2019-05-15T21:14:42.198Z,61.30
2019-05-15T21:17:10.648Z,61.50
2019-05-15T21:19:39.064Z,61.20
2019-05-15T21:22:08.372Z,61.50
2019-05-15T21:24:37.855Z,61.50
2019-05-15T21:27:06.438Z,61.80
2019-05-15T21:29:35.158Z,62.20
2019-05-15T21:32:03.644Z,62.40
2019-05-15T21:34:37.342Z,63.00
2019-05-15T21:37:02.300Z,63.20
2019-05-15T21:39:30.660Z,63.70
2019-05-15T21:42:00.140Z,64.10
2019-05-15T21:44:29.335Z,64.90
2019-05-15T21:46:58.701Z,66.40
2019-05-15T21:49:28.160Z,66.00
2019-05-15T21:51:58.381Z,66.90
2019-05-15T21:54:28.172Z,67.40
2019-05-15T21:57:12.913Z,67.90
2019-05-15T21:59:27.848Z,68.60
2019-05-15T22:01:58.778Z,69.20
2019-05-15T22:04:28.144Z,69.70
2019-05-15T22:06:58.457Z,70.10
2019-05-15T22:09:28.949Z,70.10
2019-05-15T22:11:58.371Z,70.40
2019-05-15T22:14:26.894Z,70.40
2019-05-15T22:16:55.322Z,70.20
2019-05-15T22:19:24.172Z,69.60
2019-05-15T22:21:52.603Z,70.00
2019-05-15T22:24:20.994Z,70.30
2019-05-15T22:26:49.584Z,70.50
2019-05-15T22:29:20.803Z,71.80
2019-05-15T22:31:48.616Z,71.20
2019-05-15T22:34:18.448Z,71.10
2019-05-15T22:36:48.811Z,71.10
2019-05-15T22:39:18.874Z,71.50
2019-05-15T22:41:47.871Z,71.10
2019-05-15T22:44:18.998Z,71.00
2019-05-15T22:46:48.752Z,70.90
2019-05-15T22:49:18.301Z,70.90
2019-05-15T22:51:48.658Z,71.30
2019-05-15T22:54:16.773Z,71.10
2019-05-15T22:56:45.141Z,71.40
2019-05-15T22:59:13.513Z,72.40
2019-05-15T23:01:42.134Z,71.00
2019-05-15T23:04:10.512Z,71.90
2019-05-15T23:06:39.085Z,72.20
2019-05-15T23:09:07.507Z,72.50
2019-05-15T23:11:35.853Z,72.70
2019-05-15T23:14:04.217Z,72.50
2019-05-15T23:16:32.876Z,72.30
2019-05-15T23:19:01.618Z,72.50
2019-05-15T23:21:30.027Z,72.70
2019-05-15T23:23:58.451Z,72.70
2019-05-15T23:26:28.298Z,72.70
2019-05-15T23:28:58.564Z,72.90
2019-05-15T23:31:28.105Z,73.10
2019-05-15T23:33:56.520Z,73.50
2019-05-15T23:36:24.887Z,73.60
2019-05-15T23:38:53.292Z,73.60
2019-05-15T23:41:21.613Z,73.60
2019-05-15T23:43:50.002Z,73.60
2019-05-15T23:46:18.637Z,73.30
2019-05-15T23:48:48.537Z,73.50
2019-05-15T23:51:18.934Z,73.70
2019-05-15T23:53:48.319Z,73.70
2019-05-15T23:56:19.044Z,73.90
2019-05-15T23:58:46.924Z,74.30
